createdAt,value
2018-07-03T00:00:32.664Z,98211.66
2018-07-03T00:03:01.077Z,98211.86
2018-07-03T00:05:29.536Z,98207.20
2018-07-03T00:07:58.087Z,98210.68
2018-07-03T00:10:26.826Z,98214.86
2018-07-03T00:12:55.254Z,98217.89
2018-07-03T00:15:23.680Z,98217.67
2018-07-03T00:17:52.159Z,98216.19
2018-07-03T00:21:49.885Z,98211.27
2018-07-03T00:24:18.327Z,98220.49
2018-07-03T00:26:46.751Z,98220.34
2018-07-03T00:29:15.176Z,98226.71
2018-07-03T00:31:43.600Z,98224.75
2018-07-03T00:34:12.043Z,98221.52
2018-07-03T00:36:40.469Z,98227.03
2018-07-03T00:39:09.727Z,98226.74
2018-07-03T00:41:38.163Z,98229.67
2018-07-03T00:44:06.590Z,98228.76
2018-07-03T00:46:35.028Z,98225.92
2018-07-03T00:49:03.535Z,98222.73
2018-07-03T00:51:31.942Z,98227.39
2018-07-03T00:54:00.390Z,98227.61
2018-07-03T00:56:28.823Z,98224.23
2018-07-03T00:58:57.337Z,98223.01
2018-07-03T01:01:25.767Z,98219.49
2018-07-03T01:06:14.590Z,98222.76
2018-07-03T01:08:43.034Z,98216.87
2018-07-03T01:11:11.513Z,98216.67
2018-07-03T01:13:39.919Z,98216.66
2018-07-03T01:16:08.411Z,98216.07
2018-07-03T01:18:36.899Z,98211.77
2018-07-03T01:21:05.413Z,98228.67
2018-07-03T01:23:33.895Z,98217.16
2018-07-03T01:26:02.320Z,98221.84
2018-07-03T01:28:30.772Z,98217.23
2018-07-03T01:30:59.183Z,98219.27
2018-07-03T01:33:27.583Z,98220.31
2018-07-03T01:35:56.350Z,98221.37
2018-07-03T01:38:24.963Z,98225.84
2018-07-03T01:40:53.387Z,98219.20
2018-07-03T01:43:21.830Z,98216.48
2018-07-03T01:45:50.311Z,98224.37
2018-07-03T01:48:18.785Z,98224.55
2018-07-03T01:50:47.217Z,98225.17
2018-07-03T01:53:16.110Z,98213.30
2018-07-03T01:55:44.913Z,98223.50
2018-07-03T01:58:13.550Z,98220.25
2018-07-03T02:00:41.988Z,98229.88
2018-07-03T02:03:10.403Z,98220.89
2018-07-03T02:05:38.873Z,98226.39
2018-07-03T02:08:07.302Z,98228.44
2018-07-03T02:10:35.740Z,98228.45
2018-07-03T02:13:04.197Z,98227.86
2018-07-03T02:15:32.656Z,98225.80
2018-07-03T02:18:01.118Z,98223.52
2018-07-03T02:20:29.552Z,98221.11
2018-07-03T02:22:58.012Z,98229.40
2018-07-03T02:25:26.451Z,98222.59
2018-07-03T02:27:54.945Z,98228.81
2018-07-03T02:30:23.384Z,98234.22
2018-07-03T02:32:52.192Z,98242.61
2018-07-03T02:35:20.652Z,98243.82
2018-07-03T02:37:49.071Z,98244.52
2018-07-03T02:40:17.725Z,98248.48
2018-07-03T02:42:46.147Z,98242.36
2018-07-03T02:45:14.555Z,98248.35
2018-07-03T02:47:43.017Z,98250.99
2018-07-03T02:50:11.464Z,98245.94
2018-07-03T02:52:39.940Z,98240.33
2018-07-03T02:55:08.340Z,98252.68
2018-07-03T02:57:36.859Z,98254.21
2018-07-03T03:00:06.110Z,98251.89
2018-07-03T03:02:34.541Z,98257.11
2018-07-03T03:05:03.003Z,98257.94
2018-07-03T03:07:31.456Z,98261.86
2018-07-03T03:09:59.917Z,98259.79
2018-07-03T03:12:28.324Z,98254.11
2018-07-03T03:14:56.780Z,98258.83
2018-07-03T03:17:25.251Z,98266.37
2018-07-03T03:19:53.967Z,98269.63
2018-07-03T03:22:22.468Z,98270.70
2018-07-03T03:24:50.884Z,98269.38
2018-07-03T03:27:19.306Z,98271.98
2018-07-03T03:29:47.799Z,98269.00
2018-07-03T03:32:16.229Z,98271.43
2018-07-03T03:34:44.654Z,98261.98
2018-07-03T03:37:13.080Z,98268.95
2018-07-03T03:39:41.507Z,98266.41
2018-07-03T03:42:09.968Z,98270.92
2018-07-03T03:44:38.447Z,98273.78
2018-07-03T03:47:07.571Z,98279.91
2018-07-03T03:49:35.997Z,98275.72
2018-07-03T03:52:04.447Z,98274.00
2018-07-03T03:54:32.920Z,98279.29
2018-07-03T03:57:01.507Z,98280.62
2018-07-03T03:59:30.044Z,98288.91
2018-07-03T04:01:58.600Z,98292.87
2018-07-03T04:04:27.307Z,98286.87
2018-07-03T04:06:55.747Z,98291.41
2018-07-03T04:09:24.175Z,98294.19
2018-07-03T04:11:52.970Z,98289.98
2018-07-03T04:14:21.452Z,98295.00
2018-07-03T04:16:49.932Z,98288.63
2018-07-03T04:19:18.372Z,98287.20
2018-07-03T04:21:46.859Z,98289.45
2018-07-03T04:24:15.278Z,98293.96
2018-07-03T04:26:43.707Z,98297.78
2018-07-03T04:29:12.192Z,98302.77
2018-07-03T04:31:40.631Z,98299.33
2018-07-03T04:34:09.147Z,98300.17
2018-07-03T04:36:37.543Z,98300.64
2018-07-03T04:39:09.114Z,98299.25
2018-07-03T04:41:37.748Z,98293.17
2018-07-03T04:44:06.462Z,98308.02
2018-07-03T04:46:34.900Z,98301.00
2018-07-03T04:49:03.398Z,98297.28
2018-07-03T04:51:32.019Z,98303.58
2018-07-03T04:54:00.442Z,98302.26
2018-07-03T04:56:28.878Z,98308.95
2018-07-03T04:58:57.348Z,98307.18
2018-07-03T05:01:25.891Z,98307.38
2018-07-03T05:03:54.334Z,98305.47
2018-07-03T05:06:23.086Z,98307.05
2018-07-03T05:08:51.522Z,98306.31
2018-07-03T05:11:19.962Z,98310.06
2018-07-03T05:13:48.370Z,98316.05
2018-07-03T05:16:17.137Z,98318.51
2018-07-03T05:18:45.796Z,98317.77
2018-07-03T05:21:14.198Z,98313.88
2018-07-03T05:23:42.632Z,98321.31
2018-07-03T05:26:11.043Z,98321.48
2018-07-03T05:28:39.588Z,98329.93
2018-07-03T05:31:08.270Z,98324.78
2018-07-03T05:33:36.718Z,98332.46
2018-07-03T05:36:05.410Z,98336.55
2018-07-03T05:38:33.851Z,98333.44
2018-07-03T05:41:02.280Z,98342.62
2018-07-03T05:43:30.735Z,98337.25
2018-07-03T05:45:59.245Z,98338.30
2018-07-03T05:48:27.634Z,98344.50
2018-07-03T05:50:56.053Z,98348.55
2018-07-03T05:53:24.511Z,98342.47
2018-07-03T05:55:52.927Z,98347.70
2018-07-03T05:58:21.393Z,98346.31
2018-07-03T06:00:49.853Z,98346.23
2018-07-03T06:03:18.441Z,98346.47
2018-07-03T06:05:46.897Z,98345.53
2018-07-03T06:08:15.338Z,98349.04
2018-07-03T06:10:43.992Z,98344.61
2018-07-03T06:13:12.643Z,98345.53
2018-07-03T06:15:41.088Z,98348.67
2018-07-03T06:18:09.515Z,98342.14
2018-07-03T06:20:37.916Z,98338.38
2018-07-03T06:23:06.359Z,98336.38
2018-07-03T06:25:34.904Z,98335.28
2018-07-03T06:28:03.553Z,98331.98
2018-07-03T06:30:32.016Z,98338.45
2018-07-03T06:33:00.442Z,98341.91
2018-07-03T06:35:28.879Z,98345.23
2018-07-03T06:37:57.360Z,98345.69
2018-07-03T06:40:25.856Z,98342.46
2018-07-03T06:42:54.307Z,98344.38
2018-07-03T06:45:22.752Z,98345.54
2018-07-03T06:47:51.203Z,98345.17
2018-07-03T06:50:19.643Z,98342.30
2018-07-03T06:52:48.069Z,98338.31
2018-07-03T06:55:16.545Z,98340.34
2018-07-03T06:57:45.064Z,98339.27
2018-07-03T07:00:13.511Z,98339.21
2018-07-03T07:02:42.110Z,98341.42
2018-07-03T07:05:10.531Z,98337.51
2018-07-03T07:07:39.008Z,98336.41
2018-07-03T07:10:08.441Z,98332.80
2018-07-03T07:12:36.900Z,98328.64
2018-07-03T07:15:05.993Z,98331.12
2018-07-03T07:17:34.573Z,98329.38
2018-07-03T07:20:03.033Z,98330.71
2018-07-03T07:22:31.477Z,98326.77
2018-07-03T07:24:59.896Z,98324.11
2018-07-03T07:27:28.495Z,98318.13
2018-07-03T07:29:57.127Z,98318.81
2018-07-03T07:32:25.583Z,98319.61
2018-07-03T07:34:54.015Z,98313.97
2018-07-03T07:37:22.475Z,98313.19
2018-07-03T07:39:50.923Z,98320.89
2018-07-03T07:42:19.396Z,98320.38
2018-07-03T07:44:47.844Z,98321.48
2018-07-03T07:47:16.403Z,98311.87
2018-07-03T07:49:44.812Z,98310.19
2018-07-03T07:52:13.303Z,98311.86
2018-07-03T07:54:41.758Z,98312.88
2018-07-03T07:57:10.216Z,98311.02
2018-07-03T07:59:38.927Z,98319.52
2018-07-03T08:02:07.710Z,98317.53
2018-07-03T08:04:36.119Z,98317.52
2018-07-03T08:07:04.624Z,98320.88
2018-07-03T08:09:33.067Z,98311.84
2018-07-03T08:12:01.500Z,98314.11
2018-07-03T08:14:29.943Z,98314.08
2018-07-03T08:16:58.343Z,98312.43
2018-07-03T08:19:26.862Z,98308.00
2018-07-03T08:21:55.582Z,98311.00
2018-07-03T08:24:24.017Z,98312.93
2018-07-03T08:26:52.414Z,98311.45
2018-07-03T08:29:20.868Z,98309.98
2018-07-03T08:31:49.292Z,98307.48
2018-07-03T08:34:17.756Z,98303.55
2018-07-03T08:36:46.256Z,98307.07
2018-07-03T08:39:14.686Z,98306.39
2018-07-03T08:41:43.159Z,98305.73
2018-07-03T08:44:11.571Z,98305.45
2018-07-03T08:46:40.159Z,98299.41
2018-07-03T08:49:08.942Z,98297.95
2018-07-03T08:51:37.895Z,98295.74
2018-07-03T08:54:06.618Z,98294.45
2018-07-03T08:56:35.036Z,98297.10
2018-07-03T08:59:03.751Z,98291.97
2018-07-03T09:01:32.174Z,98280.59
2018-07-03T09:04:00.834Z,98288.69
2018-07-03T09:06:29.276Z,98283.38
2018-07-03T09:08:57.680Z,98283.88
2018-07-03T09:11:26.166Z,98281.41
2018-07-03T09:13:54.604Z,98280.69
2018-07-03T09:16:23.126Z,98278.25
2018-07-03T09:18:51.722Z,98273.57
2018-07-03T09:21:20.156Z,98270.22
2018-07-03T09:23:48.583Z,98267.36
2018-07-03T09:26:17.159Z,98261.66
2018-07-03T09:28:45.639Z,98254.61
2018-07-03T09:31:14.227Z,98258.53
2018-07-03T09:33:42.684Z,98252.02
2018-07-03T09:36:11.155Z,98254.81
2018-07-03T09:38:39.698Z,98249.45
2018-07-03T09:41:08.267Z,98245.78
2018-07-03T09:43:36.685Z,98249.53
2018-07-03T09:46:05.454Z,98245.41
2018-07-03T09:48:34.139Z,98240.98
2018-07-03T09:51:02.580Z,98240.30
2018-07-03T09:53:31.027Z,98237.92
2018-07-03T09:55:59.472Z,98239.06
2018-07-03T09:58:27.966Z,98243.70
2018-07-03T10:00:57.236Z,98236.63
2018-07-03T10:03:27.136Z,98236.91
2018-07-03T10:05:58.266Z,98240.23
2018-07-03T10:09:56.838Z,98241.20
2018-07-03T10:12:25.276Z,98226.48
2018-07-03T10:14:53.765Z,98233.73
2018-07-03T10:17:22.480Z,98226.24
2018-07-03T10:19:50.919Z,98227.10
2018-07-03T10:22:19.308Z,98227.88
2018-07-03T10:24:47.969Z,98221.50
2018-07-03T10:27:16.363Z,98217.22
2018-07-03T10:29:44.788Z,98225.65
2018-07-03T10:32:13.239Z,98226.83
2018-07-03T10:34:41.695Z,98224.00
2018-07-03T10:37:10.093Z,98222.06
2018-07-03T10:39:38.492Z,98226.58
2018-07-03T10:42:07.414Z,98228.03
2018-07-03T10:44:35.787Z,98219.94
2018-07-03T10:47:04.188Z,98222.31
2018-07-03T10:49:32.607Z,98215.27
2018-07-03T10:52:01.002Z,98215.24
2018-07-03T10:54:29.471Z,98213.73
2018-07-03T10:56:58.119Z,98203.37
2018-07-03T10:59:26.812Z,98217.42
2018-07-03T11:01:55.264Z,98209.50
2018-07-03T11:04:23.895Z,98213.05
2018-07-03T11:06:52.317Z,98211.73
2018-07-03T11:09:20.742Z,98209.75
2018-07-03T11:11:49.198Z,98218.45
2018-07-03T11:14:17.751Z,98214.47
2018-07-03T11:16:46.132Z,98211.03
2018-07-03T11:19:14.566Z,98208.50
2018-07-03T11:21:42.988Z,98199.83
2018-07-03T11:24:11.706Z,98201.36
2018-07-03T11:26:40.111Z,98203.19
2018-07-03T11:29:09.123Z,98206.21
2018-07-03T11:31:37.579Z,98202.09
2018-07-03T11:34:06.335Z,98198.58
2018-07-03T11:36:34.775Z,98195.52
2018-07-03T11:39:04.003Z,98196.30
2018-07-03T11:41:32.407Z,98197.92
2018-07-03T11:44:00.880Z,98202.97
2018-07-03T11:46:29.391Z,98202.90
2018-07-03T11:48:57.846Z,98194.52
2018-07-03T11:51:26.803Z,98194.52
2018-07-03T11:53:55.204Z,98200.70
2018-07-03T11:56:23.857Z,98195.94
2018-07-03T11:58:52.590Z,98191.27
2018-07-03T12:01:21.106Z,98184.69
2018-07-03T12:03:49.643Z,98182.67
2018-07-03T12:06:18.080Z,98179.80
2018-07-03T12:08:46.480Z,98183.98
2018-07-03T12:11:14.998Z,98181.73
2018-07-03T12:13:43.446Z,98177.08
2018-07-03T12:16:11.903Z,98180.89
2018-07-03T12:18:45.535Z,98180.69
2018-07-03T12:21:14.179Z,98179.75
2018-07-03T12:23:42.707Z,98179.15
2018-07-03T12:26:11.235Z,98188.72
2018-07-03T12:28:39.931Z,98183.62
2018-07-03T12:31:08.351Z,98182.25
2018-07-03T12:33:36.868Z,98184.52
2018-07-03T12:36:06.752Z,98179.32
2018-07-03T12:38:35.153Z,98179.55
2018-07-03T12:41:03.581Z,98174.63
2018-07-03T12:43:32.017Z,98174.23
2018-07-03T12:46:00.486Z,98167.48
2018-07-03T12:48:29.121Z,98169.00
2018-07-03T12:50:57.552Z,98172.06
2018-07-03T12:53:25.956Z,98181.91
2018-07-03T12:55:54.599Z,98172.95
2018-07-03T12:58:23.143Z,98170.95
2018-07-03T13:00:51.694Z,98168.48
2018-07-03T13:03:20.351Z,98168.72
2018-07-03T13:05:48.804Z,98161.87
2018-07-03T13:08:17.256Z,98174.16
2018-07-03T13:10:45.904Z,98172.06
2018-07-03T13:13:14.331Z,98167.42
2018-07-03T13:15:42.800Z,98168.00
2018-07-03T13:18:16.537Z,98162.17
2018-07-03T13:20:44.926Z,98163.34
2018-07-03T13:23:13.435Z,98160.25
2018-07-03T13:25:41.823Z,98156.59
2018-07-03T13:28:10.877Z,98166.64
2018-07-03T13:30:39.688Z,98155.30
2018-07-03T13:33:08.136Z,98158.25
2018-07-03T13:35:36.692Z,98153.77
2018-07-03T13:38:05.666Z,98156.75
2018-07-03T13:40:34.154Z,98158.74
2018-07-03T13:43:02.626Z,98158.69
2018-07-03T13:45:31.036Z,98160.03
2018-07-03T13:47:59.512Z,98152.72
2018-07-03T13:50:27.946Z,98154.34
2018-07-03T13:52:56.346Z,98156.69
2018-07-03T13:55:24.791Z,98159.74
2018-07-03T13:57:53.243Z,98160.80
2018-07-03T14:00:21.687Z,98158.54
2018-07-03T14:02:50.097Z,98162.34
2018-07-03T14:05:18.557Z,98153.77
2018-07-03T14:07:46.960Z,98158.38
2018-07-03T14:10:15.578Z,98157.37
2018-07-03T14:12:44.016Z,98161.45
2018-07-03T14:15:12.619Z,98159.77
2018-07-03T14:17:41.067Z,98158.41
2018-07-03T14:20:09.486Z,98156.83
2018-07-03T14:22:37.948Z,98168.16
2018-07-03T14:25:06.459Z,98161.17
2018-07-03T14:27:34.856Z,98154.25
2018-07-03T14:30:03.396Z,98162.22
2018-07-03T14:32:31.919Z,98157.78
2018-07-03T14:35:00.355Z,98166.19
2018-07-03T14:37:28.767Z,98169.25
2018-07-03T14:39:57.182Z,98162.22
2018-07-03T14:42:25.606Z,98162.67
2018-07-03T14:44:54.042Z,98163.87
2018-07-03T14:47:22.968Z,98161.75
2018-07-03T14:49:51.416Z,98168.73
2018-07-03T14:52:19.960Z,98168.49
2018-07-03T14:54:48.795Z,98166.20
2018-07-03T14:57:17.232Z,98170.07
2018-07-03T14:59:45.707Z,98164.78
2018-07-03T15:02:14.175Z,98167.95
2018-07-03T15:04:42.745Z,98165.16
2018-07-03T15:07:11.223Z,98162.81
2018-07-03T15:09:39.652Z,98166.61
2018-07-03T15:12:08.196Z,98168.22
2018-07-03T15:14:36.602Z,98172.60
2018-07-03T15:17:05.036Z,98162.16
2018-07-03T15:19:38.840Z,98157.81
2018-07-03T15:22:07.723Z,98166.70
2018-07-03T15:24:36.430Z,98159.19
2018-07-03T15:27:04.963Z,98167.67
2018-07-03T15:29:33.397Z,98161.66
2018-07-03T15:32:01.820Z,98164.61
2018-07-03T15:34:30.287Z,98161.60
2018-07-03T15:36:58.712Z,98158.23
2018-07-03T15:39:27.464Z,98151.85
2018-07-03T15:41:55.865Z,98148.64
2018-07-03T15:44:35.440Z,98151.69
2018-07-03T15:47:03.970Z,98157.63
2018-07-03T15:49:32.520Z,98152.03
2018-07-03T15:52:00.950Z,98153.78
2018-07-03T15:54:29.331Z,98146.30
2018-07-03T15:56:57.807Z,98140.53
2018-07-03T15:59:26.249Z,98144.12
2018-07-03T16:01:54.677Z,98153.86
2018-07-03T16:05:33.259Z,98151.81
2018-07-03T16:08:11.191Z,98152.95
2018-07-03T16:10:39.615Z,98158.38
2018-07-03T16:13:08.032Z,98149.59
2018-07-03T16:15:36.977Z,98161.38
2018-07-03T16:18:05.753Z,98152.14
2018-07-03T16:20:39.820Z,98156.96
2018-07-03T16:23:08.908Z,98159.27
2018-07-03T16:25:37.557Z,98156.06
2018-07-03T16:28:06.219Z,98151.97
2018-07-03T16:30:34.682Z,98149.20
2018-07-03T16:33:03.055Z,98158.02
2018-07-03T16:35:31.749Z,98155.17
2018-07-03T16:38:00.390Z,98159.82
2018-07-03T16:40:29.052Z,98151.27
2018-07-03T16:42:57.739Z,98157.69
2018-07-03T16:45:26.473Z,98163.16
2018-07-03T16:47:55.395Z,98166.99
2018-07-03T16:50:24.001Z,98159.73
2018-07-03T16:52:52.546Z,98165.01
2018-07-03T16:55:21.446Z,98163.50
2018-07-03T16:57:50.741Z,98156.25
2018-07-03T17:00:26.171Z,98162.51
2018-07-03T17:02:54.707Z,98247.71
2018-07-03T17:05:23.955Z,98312.20
2018-07-03T17:07:52.535Z,98267.48
2018-07-03T17:10:21.107Z,98236.81
2018-07-03T17:12:49.849Z,98210.31
2018-07-03T17:15:18.221Z,98195.39
2018-07-03T17:17:46.917Z,98186.50
2018-07-03T17:20:15.608Z,98178.64
2018-07-03T17:22:44.025Z,98167.28
2018-07-03T17:25:12.505Z,98167.30
2018-07-03T17:27:41.074Z,98164.44
2018-07-03T17:30:09.596Z,98162.92
2018-07-03T17:32:38.200Z,98152.44
2018-07-03T17:35:06.890Z,98157.98
2018-07-03T17:37:35.419Z,98155.28
2018-07-03T17:40:15.009Z,98157.81
2018-07-03T17:44:58.797Z,98160.60
2018-07-03T17:47:27.318Z,98149.81
2018-07-03T17:49:55.799Z,98122.77
2018-07-03T17:52:24.209Z,98150.77
2018-07-03T17:54:52.767Z,98158.43
2018-07-03T17:57:21.455Z,98157.53
2018-07-03T17:59:49.899Z,98159.44
2018-07-03T18:02:18.340Z,98155.90
2018-07-03T18:04:46.943Z,98156.59
2018-07-03T18:07:15.520Z,98153.89
2018-07-03T18:09:44.103Z,98154.34
2018-07-03T18:12:12.856Z,98157.47
2018-07-03T18:14:41.275Z,98148.61
2018-07-03T18:17:10.988Z,98153.02
2018-07-03T18:19:44.988Z,98146.89
2018-07-03T18:22:13.425Z,98154.10
2018-07-03T18:24:41.933Z,98151.38
2018-07-03T18:27:11.214Z,98150.97
2018-07-03T18:29:53.085Z,98153.90
2018-07-03T18:32:23.852Z,98150.61
2018-07-03T18:34:52.468Z,98153.97
2018-07-03T18:37:20.916Z,98158.08
2018-07-03T18:39:49.707Z,98159.97
2018-07-03T18:42:18.183Z,98159.64
2018-07-03T18:44:46.631Z,98153.97
2018-07-03T18:47:16.302Z,98152.80
2018-07-03T18:49:45.083Z,98153.35
2018-07-03T18:52:13.548Z,98157.36
2018-07-03T18:54:42.180Z,98157.06
2018-07-03T18:57:11.472Z,98142.13
2018-07-03T18:59:42.462Z,98164.47
2018-07-03T19:02:13.803Z,98161.33
2018-07-03T19:04:45.787Z,98166.59
2018-07-03T19:07:14.376Z,98167.09
2018-07-03T19:09:42.784Z,98170.80
2018-07-03T19:12:11.169Z,98172.39
2018-07-03T19:14:39.604Z,98170.19
2018-07-03T19:17:08.421Z,98176.73
2018-07-03T19:19:37.278Z,98177.28
2018-07-03T19:22:06.032Z,98172.73
2018-07-03T19:24:34.662Z,98175.68
2018-07-03T19:27:03.053Z,98175.52
2018-07-03T19:29:31.527Z,98180.77
2018-07-03T19:31:59.989Z,98184.73
2018-07-03T19:34:28.481Z,98184.69
2018-07-03T19:36:56.876Z,98187.17
2018-07-03T19:39:25.294Z,98190.41
2018-07-03T19:43:38.789Z,98188.09
2018-07-03T19:46:07.803Z,98183.49
2018-07-03T19:48:36.230Z,98195.61
2018-07-03T19:51:04.764Z,98189.05
2018-07-03T19:53:33.170Z,98184.52
2018-07-03T19:56:01.633Z,98185.95
2018-07-03T19:58:30.351Z,98185.31
2018-07-03T20:00:58.985Z,98188.04
2018-07-03T20:03:27.465Z,98189.83
2018-07-03T20:05:56.107Z,98193.38
2018-07-03T20:08:24.540Z,98196.48
2018-07-03T20:10:53.019Z,98205.05
2018-07-03T20:13:21.468Z,98204.48
2018-07-03T20:15:49.924Z,98206.47
2018-07-03T20:18:18.578Z,98209.13
2018-07-03T20:20:47.355Z,98208.36
2018-07-03T20:23:15.803Z,98200.88
2018-07-03T20:25:44.282Z,98205.17
2018-07-03T20:28:12.691Z,98207.73
2018-07-03T20:30:41.271Z,98204.63
2018-07-03T20:33:09.766Z,98205.56
2018-07-03T20:35:38.194Z,98200.55
2018-07-03T20:38:07.353Z,98203.27
2018-07-03T20:40:51.893Z,98200.06
2018-07-03T20:43:20.562Z,98191.27
2018-07-03T20:45:49.035Z,98191.16
2018-07-03T20:48:17.498Z,98191.35
2018-07-03T20:50:45.991Z,98189.35
2018-07-03T20:53:14.968Z,98189.36
2018-07-03T20:55:43.637Z,98192.38
2018-07-03T20:58:12.198Z,98190.19
2018-07-03T21:00:40.674Z,98188.33
2018-07-03T21:03:09.352Z,98186.34
2018-07-03T21:05:37.895Z,98191.19
2018-07-03T21:08:07.294Z,98193.02
2018-07-03T21:10:36.132Z,98196.98
2018-07-03T21:13:04.504Z,98205.01
2018-07-03T21:15:32.940Z,98206.17
2018-07-03T21:18:01.374Z,98209.50
2018-07-03T21:20:29.823Z,98204.81
2018-07-03T21:22:58.306Z,98217.30
2018-07-03T21:25:26.751Z,98216.00
2018-07-03T21:27:55.170Z,98221.76
2018-07-03T21:30:23.649Z,98220.44
2018-07-03T21:32:52.104Z,98218.30
2018-07-03T21:35:20.739Z,98224.44
2018-07-03T21:37:49.139Z,98229.85
2018-07-03T21:40:17.593Z,98229.03
2018-07-03T21:42:46.047Z,98235.09
2018-07-03T21:45:14.698Z,98231.50
2018-07-03T21:47:43.165Z,98229.38
2018-07-03T21:50:11.590Z,98235.63
2018-07-03T21:52:40.466Z,98241.28
2018-07-03T21:55:08.942Z,98236.14
2018-07-03T21:57:37.568Z,98231.91
2018-07-03T22:00:07.564Z,98230.28
2018-07-03T22:02:36.595Z,98234.88
2018-07-03T22:05:05.284Z,98232.11
2018-07-03T22:07:33.802Z,98235.75
2018-07-03T22:10:02.448Z,98233.30
2018-07-03T22:12:31.188Z,98230.42
2018-07-03T22:14:59.595Z,98231.53
2018-07-03T22:17:28.024Z,98229.27
2018-07-03T22:19:56.443Z,98234.06
2018-07-03T22:24:52.253Z,98242.17
2018-07-03T22:27:20.787Z,98242.88
2018-07-03T22:29:49.146Z,98238.45
2018-07-03T22:32:17.590Z,98248.24
2018-07-03T22:34:46.061Z,98250.20
2018-07-03T22:37:14.507Z,98249.66
2018-07-03T22:39:42.931Z,98251.97
2018-07-03T22:42:11.351Z,98251.18
2018-07-03T22:44:39.793Z,98258.98
2018-07-03T22:47:08.215Z,98251.20
2018-07-03T22:49:36.664Z,98262.52
2018-07-03T22:52:05.090Z,98267.16
2018-07-03T22:54:33.495Z,98269.81
2018-07-03T22:57:01.957Z,98267.70
2018-07-03T22:59:30.347Z,98257.79
2018-07-03T23:01:58.858Z,98260.45
2018-07-03T23:04:27.269Z,98262.98
2018-07-03T23:06:55.647Z,98266.13
2018-07-03T23:09:24.331Z,98265.64
2018-07-03T23:11:52.929Z,98266.52
2018-07-03T23:14:21.402Z,98263.17
2018-07-03T23:16:49.818Z,98263.98
2018-07-03T23:19:18.223Z,98269.72
2018-07-03T23:21:46.656Z,98269.56
2018-07-03T23:24:15.037Z,98262.91
2018-07-03T23:26:43.594Z,98264.55
2018-07-03T23:29:12.026Z,98259.57
2018-07-03T23:31:40.424Z,98261.16
2018-07-03T23:34:08.855Z,98262.73
2018-07-03T23:36:37.437Z,98264.34
2018-07-03T23:39:08.940Z,98264.83
2018-07-03T23:41:37.391Z,98263.09
2018-07-03T23:44:05.967Z,98273.55
2018-07-03T23:46:45.440Z,98261.73
2018-07-03T23:49:25.049Z,98262.41
2018-07-03T23:52:04.628Z,98270.37
2018-07-03T23:54:44.305Z,98269.67
2018-07-03T23:57:23.927Z,98262.58
